Terminal Aerodrome Forecast
Issued by NWS

Home | Current Version | Previous Version | Text Only | Print | Product List | Glossary On
Versions: 1 2 3 4 5 6 7 8 9 10 11 12 13 14 15 16 17 18 19 20
000
FTUS43 KLSX 191700
TAFUIN
TAF
KUIN 191720Z 1918/2018 VRB05KT P6SM -RA SCT050 BKN100
     FM200100 27008KT P6SM SCT040 BKN080
     FM200600 31012G20KT P6SM BKN025
     FM201500 30020G30KT P6SM SCT040=

USA.gov is the U.S. government's official web portal to all federal, state and local government web resources and services.